sensor_id;sensor_type;location;lat;lon;timestamp;temperature;humidity
24454;DHT22;12627;50.860;5.714;2022-10-17T00:02:07;15.20;99.90
24454;DHT22;12627;50.860;5.714;2022-10-17T00:04:34;15.30;99.90
24454;DHT22;12627;50.860;5.714;2022-10-17T00:07:02;15.10;99.90
24454;DHT22;12627;50.860;5.714;2022-10-17T00:09:29;14.90;99.90
24454;DHT22;12627;50.860;5.714;2022-10-17T00:11:57;14.90;99.90
24454;DHT22;12627;50.860;5.714;2022-10-17T00:14:25;14.80;99.90
24454;DHT22;12627;50.860;5.714;2022-10-17T00:16:52;14.60;99.90
24454;DHT22;12627;50.860;5.714;2022-10-17T00:19:19;14.60;99.90
24454;DHT22;12627;50.860;5.714;2022-10-17T00:21:48;14.60;99.90
24454;DHT22;12627;50.860;5.714;2022-10-17T00:24:15;14.60;99.90
24454;DHT22;12627;50.860;5.714;2022-10-17T00:26:42;14.60;99.90
24454;DHT22;12627;50.860;5.714;2022-10-17T00:29:11;14.50;99.90
24454;DHT22;12627;50.860;5.714;2022-10-17T00:31:38;14.50;99.90
24454;DHT22;12627;50.860;5.714;2022-10-17T00:34:05;14.50;99.90
24454;DHT22;12627;50.860;5.714;2022-10-17T00:36:32;14.50;99.90
24454;DHT22;12627;50.860;5.714;2022-10-17T00:39:00;14.50;99.90
24454;DHT22;12627;50.860;5.714;2022-10-17T00:41:29;15.00;99.90
24454;DHT22;12627;50.860;5.714;2022-10-17T00:43:59;15.30;99.90
24454;DHT22;12627;50.860;5.714;2022-10-17T00:46:30;15.60;99.90
24454;DHT22;12627;50.860;5.714;2022-10-17T00:49:00;15.70;99.90
24454;DHT22;12627;50.860;5.714;2022-10-17T00:51:33;15.60;99.90
24454;DHT22;12627;50.860;5.714;2022-10-17T00:54:03;15.60;99.90
24454;DHT22;12627;50.860;5.714;2022-10-17T00:56:31;15.80;99.90
24454;DHT22;12627;50.860;5.714;2022-10-17T00:58:59;15.90;99.90
24454;DHT22;12627;50.860;5.714;2022-10-17T01:01:27;15.90;99.90
24454;DHT22;12627;50.860;5.714;2022-10-17T01:03:54;15.80;99.90
24454;DHT22;12627;50.860;5.714;2022-10-17T01:06:22;15.70;99.90
24454;DHT22;12627;50.860;5.714;2022-10-17T01:08:49;15.60;99.90
24454;DHT22;12627;50.860;5.714;2022-10-17T01:11:28;15.50;99.90
24454;DHT22;12627;50.860;5.714;2022-10-17T01:14:03;15.30;99.90
24454;DHT22;12627;50.860;5.714;2022-10-17T01:16:40;15.40;99.90
24454;DHT22;12627;50.860;5.714;2022-10-17T01:19:24;15.50;99.90
24454;DHT22;12627;50.860;5.714;2022-10-17T01:22:00;15.60;99.90
24454;DHT22;12627;50.860;5.714;2022-10-17T01:24:47;15.80;99.90
24454;DHT22;12627;50.860;5.714;2022-10-17T01:27:48;15.80;99.90
24454;DHT22;12627;50.860;5.714;2022-10-17T01:30:45;16.00;99.90
24454;DHT22;12627;50.860;5.714;2022-10-17T01:33:17;16.10;99.90
24454;DHT22;12627;50.860;5.714;2022-10-17T01:35:53;16.10;99.90
24454;DHT22;12627;50.860;5.714;2022-10-17T01:38:25;16.10;99.90
24454;DHT22;12627;50.860;5.714;2022-10-17T01:40:59;16.10;99.90
24454;DHT22;12627;50.860;5.714;2022-10-17T01:43:33;16.10;99.90
24454;DHT22;12627;50.860;5.714;2022-10-17T01:46:10;16.10;99.90
24454;DHT22;12627;50.860;5.714;2022-10-17T01:48:41;16.00;99.90
24454;DHT22;12627;50.860;5.714;2022-10-17T01:51:14;16.00;99.90
24454;DHT22;12627;50.860;5.714;2022-10-17T01:53:49;16.00;99.90
24454;DHT22;12627;50.860;5.714;2022-10-17T01:56:19;16.00;99.90
24454;DHT22;12627;50.860;5.714;2022-10-17T01:58:51;15.90;99.90
24454;DHT22;12627;50.860;5.714;2022-10-17T02:01:21;16.00;99.90
24454;DHT22;12627;50.860;5.714;2022-10-17T02:03:50;16.10;99.90
24454;DHT22;12627;50.860;5.714;2022-10-17T02:06:18;16.30;99.90
24454;DHT22;12627;50.860;5.714;2022-10-17T02:08:50;16.30;99.90
24454;DHT22;12627;50.860;5.714;2022-10-17T02:11:18;16.30;99.90
24454;DHT22;12627;50.860;5.714;2022-10-17T02:14:05;16.40;99.90
24454;DHT22;12627;50.860;5.714;2022-10-17T02:16:39;16.60;99.90
24454;DHT22;12627;50.860;5.714;2022-10-17T02:19:31;16.70;99.90
24454;DHT22;12627;50.860;5.714;2022-10-17T02:22:11;16.70;99.90
24454;DHT22;12627;50.860;5.714;2022-10-17T02:24:46;16.60;99.90
24454;DHT22;12627;50.860;5.714;2022-10-17T02:27:23;16.60;99.90
24454;DHT22;12627;50.860;5.714;2022-10-17T02:29:56;16.60;99.90
24454;DHT22;12627;50.860;5.714;2022-10-17T02:32:32;16.60;99.90
24454;DHT22;12627;50.860;5.714;2022-10-17T02:35:02;16.50;99.90
24454;DHT22;12627;50.860;5.714;2022-10-17T02:37:30;16.50;99.90
24454;DHT22;12627;50.860;5.714;2022-10-17T02:39:59;16.50;99.90
24454;DHT22;12627;50.860;5.714;2022-10-17T02:42:28;16.40;99.90
24454;DHT22;12627;50.860;5.714;2022-10-17T02:44:59;16.30;99.90
24454;DHT22;12627;50.860;5.714;2022-10-17T02:47:33;16.20;99.90
24454;DHT22;12627;50.860;5.714;2022-10-17T02:50:04;16.10;99.90
24454;DHT22;12627;50.860;5.714;2022-10-17T02:52:35;16.00;99.90
24454;DHT22;12627;50.860;5.714;2022-10-17T02:55:09;16.00;99.90
24454;DHT22;12627;50.860;5.714;2022-10-17T02:57:39;16.00;99.90
24454;DHT22;12627;50.860;5.714;2022-10-17T03:00:11;16.00;99.90
24454;DHT22;12627;50.860;5.714;2022-10-17T03:02:42;16.20;99.90
24454;DHT22;12627;50.860;5.714;2022-10-17T03:05:11;16.10;99.90
24454;DHT22;12627;50.860;5.714;2022-10-17T03:07:39;16.10;99.90
24454;DHT22;12627;50.860;5.714;2022-10-17T03:10:06;16.10;99.90
24454;DHT22;12627;50.860;5.714;2022-10-17T03:12:34;16.10;99.90
24454;DHT22;12627;50.860;5.714;2022-10-17T03:15:01;16.10;99.90
24454;DHT22;12627;50.860;5.714;2022-10-17T03:17:28;16.20;99.90
24454;DHT22;12627;50.860;5.714;2022-10-17T03:19:56;16.30;99.90
24454;DHT22;12627;50.860;5.714;2022-10-17T03:22:24;16.30;99.90
24454;DHT22;12627;50.860;5.714;2022-10-17T03:24:51;16.50;99.90
24454;DHT22;12627;50.860;5.714;2022-10-17T03:27:18;16.50;99.90
24454;DHT22;12627;50.860;5.714;2022-10-17T03:29:45;16.50;99.90
24454;DHT22;12627;50.860;5.714;2022-10-17T03:32:12;16.40;99.90
24454;DHT22;12627;50.860;5.714;2022-10-17T03:34:39;16.30;99.90
24454;DHT22;12627;50.860;5.714;2022-10-17T03:37:08;16.30;99.90
24454;DHT22;12627;50.860;5.714;2022-10-17T03:39:35;16.40;99.90
24454;DHT22;12627;50.860;5.714;2022-10-17T03:42:02;16.60;99.90
24454;DHT22;12627;50.860;5.714;2022-10-17T03:44:30;16.80;99.90
24454;DHT22;12627;50.860;5.714;2022-10-17T03:46:57;16.90;99.90
24454;DHT22;12627;50.860;5.714;2022-10-17T03:49:24;16.80;99.90
24454;DHT22;12627;50.860;5.714;2022-10-17T03:51:51;16.80;99.90
24454;DHT22;12627;50.860;5.714;2022-10-17T03:54:20;16.80;99.90
24454;DHT22;12627;50.860;5.714;2022-10-17T03:56:47;16.70;99.90
24454;DHT22;12627;50.860;5.714;2022-10-17T03:59:14;16.70;99.90
24454;DHT22;12627;50.860;5.714;2022-10-17T04:01:41;16.80;99.90
24454;DHT22;12627;50.860;5.714;2022-10-17T04:04:09;16.90;99.90
24454;DHT22;12627;50.860;5.714;2022-10-17T04:06:36;17.00;99.90
24454;DHT22;12627;50.860;5.714;2022-10-17T04:09:04;17.00;99.90
24454;DHT22;12627;50.860;5.714;2022-10-17T04:11:33;17.10;99.90
24454;DHT22;12627;50.860;5.714;2022-10-17T04:14:00;17.20;99.90
24454;DHT22;12627;50.860;5.714;2022-10-17T04:16:27;17.30;99.90
24454;DHT22;12627;50.860;5.714;2022-10-17T04:18:57;17.40;99.90
24454;DHT22;12627;50.860;5.714;2022-10-17T04:21:26;17.40;99.90
24454;DHT22;12627;50.860;5.714;2022-10-17T04:23:53;17.30;99.90
24454;DHT22;12627;50.860;5.714;2022-10-17T04:26:21;17.20;99.90
24454;DHT22;12627;50.860;5.714;2022-10-17T04:28:49;17.30;99.90
24454;DHT22;12627;50.860;5.714;2022-10-17T04:31:17;17.20;99.90
24454;DHT22;12627;50.860;5.714;2022-10-17T04:33:46;17.20;99.90
24454;DHT22;12627;50.860;5.714;2022-10-17T04:36:16;17.10;99.90
24454;DHT22;12627;50.860;5.714;2022-10-17T04:38:44;17.00;99.90
24454;DHT22;12627;50.860;5.714;2022-10-17T04:41:15;16.90;99.90
24454;DHT22;12627;50.860;5.714;2022-10-17T04:43:43;16.90;99.90
24454;DHT22;12627;50.860;5.714;2022-10-17T04:46:13;16.80;99.90
24454;DHT22;12627;50.860;5.714;2022-10-17T04:48:41;16.80;99.90
24454;DHT22;12627;50.860;5.714;2022-10-17T04:51:11;16.90;99.90
24454;DHT22;12627;50.860;5.714;2022-10-17T04:53:39;17.00;99.90
24454;DHT22;12627;50.860;5.714;2022-10-17T04:56:08;17.00;99.90
24454;DHT22;12627;50.860;5.714;2022-10-17T04:58:36;17.00;99.90
24454;DHT22;12627;50.860;5.714;2022-10-17T05:01:07;17.00;99.90
24454;DHT22;12627;50.860;5.714;2022-10-17T05:03:35;17.00;99.90
24454;DHT22;12627;50.860;5.714;2022-10-17T05:06:05;16.90;99.90
24454;DHT22;12627;50.860;5.714;2022-10-17T05:08:32;16.90;99.90
24454;DHT22;12627;50.860;5.714;2022-10-17T05:10:59;16.90;99.90
24454;DHT22;12627;50.860;5.714;2022-10-17T05:13:26;16.90;99.90
24454;DHT22;12627;50.860;5.714;2022-10-17T05:15:58;17.00;99.90
24454;DHT22;12627;50.860;5.714;2022-10-17T05:18:25;17.10;99.90
24454;DHT22;12627;50.860;5.714;2022-10-17T05:20:54;17.10;99.90
24454;DHT22;12627;50.860;5.714;2022-10-17T05:23:21;17.10;99.90
24454;DHT22;12627;50.860;5.714;2022-10-17T05:25:53;17.20;99.90
24454;DHT22;12627;50.860;5.714;2022-10-17T05:28:20;17.30;99.90
24454;DHT22;12627;50.860;5.714;2022-10-17T05:30:48;17.30;99.90
24454;DHT22;12627;50.860;5.714;2022-10-17T05:33:15;17.40;99.90
24454;DHT22;12627;50.860;5.714;2022-10-17T05:35:42;17.40;99.90
24454;DHT22;12627;50.860;5.714;2022-10-17T05:38:11;17.60;99.90
24454;DHT22;12627;50.860;5.714;2022-10-17T05:40:38;17.70;99.90
24454;DHT22;12627;50.860;5.714;2022-10-17T05:43:05;17.80;99.90
24454;DHT22;12627;50.860;5.714;2022-10-17T05:45:32;17.80;99.90
24454;DHT22;12627;50.860;5.714;2022-10-17T05:47:59;17.80;99.90
24454;DHT22;12627;50.860;5.714;2022-10-17T05:50:27;17.80;99.90
24454;DHT22;12627;50.860;5.714;2022-10-17T05:52:54;17.90;99.90
24454;DHT22;12627;50.860;5.714;2022-10-17T05:55:23;17.90;99.90
24454;DHT22;12627;50.860;5.714;2022-10-17T05:57:50;17.90;99.90
24454;DHT22;12627;50.860;5.714;2022-10-17T06:00:19;17.90;99.90
24454;DHT22;12627;50.860;5.714;2022-10-17T06:02:47;17.90;99.90
24454;DHT22;12627;50.860;5.714;2022-10-17T06:05:14;17.90;99.90
24454;DHT22;12627;50.860;5.714;2022-10-17T06:07:42;18.00;99.90
24454;DHT22;12627;50.860;5.714;2022-10-17T06:10:09;18.00;99.90
24454;DHT22;12627;50.860;5.714;2022-10-17T06:12:41;17.90;99.90
24454;DHT22;12627;50.860;5.714;2022-10-17T06:15:09;17.90;99.90
24454;DHT22;12627;50.860;5.714;2022-10-17T06:17:36;17.90;99.90
24454;DHT22;12627;50.860;5.714;2022-10-17T06:20:04;17.80;99.90
24454;DHT22;12627;50.860;5.714;2022-10-17T06:22:32;17.80;99.90
24454;DHT22;12627;50.860;5.714;2022-10-17T06:24:59;17.80;99.90
24454;DHT22;12627;50.860;5.714;2022-10-17T06:27:26;17.80;99.90
24454;DHT22;12627;50.860;5.714;2022-10-17T06:29:55;17.80;99.90
24454;DHT22;12627;50.860;5.714;2022-10-17T06:32:22;17.80;99.90
24454;DHT22;12627;50.860;5.714;2022-10-17T06:34:49;17.90;99.90
24454;DHT22;12627;50.860;5.714;2022-10-17T06:37:16;18.10;99.90
24454;DHT22;12627;50.860;5.714;2022-10-17T06:39:44;18.20;99.90
24454;DHT22;12627;50.860;5.714;2022-10-17T06:42:11;18.30;99.90
24454;DHT22;12627;50.860;5.714;2022-10-17T06:44:38;18.50;99.90
24454;DHT22;12627;50.860;5.714;2022-10-17T06:47:08;18.50;99.90
24454;DHT22;12627;50.860;5.714;2022-10-17T06:49:36;18.40;99.90
24454;DHT22;12627;50.860;5.714;2022-10-17T06:52:03;18.20;99.90
24454;DHT22;12627;50.860;5.714;2022-10-17T06:54:31;18.20;99.90
24454;DHT22;12627;50.860;5.714;2022-10-17T06:56:58;18.30;99.90
24454;DHT22;12627;50.860;5.714;2022-10-17T06:59:25;18.40;99.90
24454;DHT22;12627;50.860;5.714;2022-10-17T07:01:52;18.40;99.90
24454;DHT22;12627;50.860;5.714;2022-10-17T07:04:21;18.50;99.90
24454;DHT22;12627;50.860;5.714;2022-10-17T07:06:48;18.70;99.90
24454;DHT22;12627;50.860;5.714;2022-10-17T07:09:16;18.80;99.90
24454;DHT22;12627;50.860;5.714;2022-10-17T07:11:43;18.80;99.90
24454;DHT22;12627;50.860;5.714;2022-10-17T07:14:10;18.90;99.90
24454;DHT22;12627;50.860;5.714;2022-10-17T07:16:38;19.00;99.90
24454;DHT22;12627;50.860;5.714;2022-10-17T07:19:05;19.00;99.90
24454;DHT22;12627;50.860;5.714;2022-10-17T07:21:34;19.20;99.90
24454;DHT22;12627;50.860;5.714;2022-10-17T07:24:01;19.60;99.90
24454;DHT22;12627;50.860;5.714;2022-10-17T07:26:28;19.80;99.90
24454;DHT22;12627;50.860;5.714;2022-10-17T07:28:55;20.30;99.90
24454;DHT22;12627;50.860;5.714;2022-10-17T07:31:23;20.30;99.90
24454;DHT22;12627;50.860;5.714;2022-10-17T07:33:50;20.40;99.90
24454;DHT22;12627;50.860;5.714;2022-10-17T07:36:18;20.60;99.90
24454;DHT22;12627;50.860;5.714;2022-10-17T07:38:46;20.40;99.90
24454;DHT22;12627;50.860;5.714;2022-10-17T07:41:14;20.50;99.90
24454;DHT22;12627;50.860;5.714;2022-10-17T07:43:41;20.30;99.90
24454;DHT22;12627;50.860;5.714;2022-10-17T07:46:08;20.00;99.90
24454;DHT22;12627;50.860;5.714;2022-10-17T07:48:39;20.20;99.90
24454;DHT22;12627;50.860;5.714;2022-10-17T07:51:07;20.30;99.90
24454;DHT22;12627;50.860;5.714;2022-10-17T07:53:35;20.30;99.90
24454;DHT22;12627;50.860;5.714;2022-10-17T07:56:06;20.30;99.90
24454;DHT22;12627;50.860;5.714;2022-10-17T07:58:34;20.20;99.90
24454;DHT22;12627;50.860;5.714;2022-10-17T08:01:03;20.00;99.90
24454;DHT22;12627;50.860;5.714;2022-10-17T08:03:31;19.90;99.90
24454;DHT22;12627;50.860;5.714;2022-10-17T08:05:59;20.00;99.90
24454;DHT22;12627;50.860;5.714;2022-10-17T08:08:27;20.30;99.90
24454;DHT22;12627;50.860;5.714;2022-10-17T08:10:54;20.50;99.90
24454;DHT22;12627;50.860;5.714;2022-10-17T08:13:23;20.40;99.90
24454;DHT22;12627;50.860;5.714;2022-10-17T08:15:51;20.20;99.90
24454;DHT22;12627;50.860;5.714;2022-10-17T08:18:18;20.30;99.90
24454;DHT22;12627;50.860;5.714;2022-10-17T08:20:45;20.40;99.90
24454;DHT22;12627;50.860;5.714;2022-10-17T08:23:13;20.30;99.90
24454;DHT22;12627;50.860;5.714;2022-10-17T08:25:40;20.50;99.90
24454;DHT22;12627;50.860;5.714;2022-10-17T08:28:08;20.70;99.90
24454;DHT22;12627;50.860;5.714;2022-10-17T08:30:36;20.40;99.90
24454;DHT22;12627;50.860;5.714;2022-10-17T08:33:04;20.20;99.90
24454;DHT22;12627;50.860;5.714;2022-10-17T08:35:31;20.10;99.90
24454;DHT22;12627;50.860;5.714;2022-10-17T08:37:58;20.00;99.90
24454;DHT22;12627;50.860;5.714;2022-10-17T08:40:28;19.90;99.90
24454;DHT22;12627;50.860;5.714;2022-10-17T08:46:01;19.90;99.90
24454;DHT22;12627;50.860;5.714;2022-10-17T08:48:31;19.80;99.90
24454;DHT22;12627;50.860;5.714;2022-10-17T08:51:04;19.80;99.90
24454;DHT22;12627;50.860;5.714;2022-10-17T08:53:35;19.90;99.90
24454;DHT22;12627;50.860;5.714;2022-10-17T08:56:13;20.00;99.90
24454;DHT22;12627;50.860;5.714;2022-10-17T08:58:42;20.00;99.90
24454;DHT22;12627;50.860;5.714;2022-10-17T09:01:27;20.00;99.90
24454;DHT22;12627;50.860;5.714;2022-10-17T09:04:11;19.90;99.90
24454;DHT22;12627;50.860;5.714;2022-10-17T09:06:45;19.90;99.90
24454;DHT22;12627;50.860;5.714;2022-10-17T09:09:23;19.80;99.90
24454;DHT22;12627;50.860;5.714;2022-10-17T09:12:01;19.70;99.90
24454;DHT22;12627;50.860;5.714;2022-10-17T09:14:40;19.80;99.90
24454;DHT22;12627;50.860;5.714;2022-10-17T09:17:20;19.80;99.90
24454;DHT22;12627;50.860;5.714;2022-10-17T09:19:58;19.90;99.90
24454;DHT22;12627;50.860;5.714;2022-10-17T09:22:29;19.80;99.90
24454;DHT22;12627;50.860;5.714;2022-10-17T09:25:00;19.80;99.90
24454;DHT22;12627;50.860;5.714;2022-10-17T09:27:34;19.80;99.90
24454;DHT22;12627;50.860;5.714;2022-10-17T09:32:58;20.00;99.90
24454;DHT22;12627;50.860;5.714;2022-10-17T09:35:27;20.00;99.90
24454;DHT22;12627;50.860;5.714;2022-10-17T09:37:55;20.00;99.90
24454;DHT22;12627;50.860;5.714;2022-10-17T09:40:25;20.00;99.90
24454;DHT22;12627;50.860;5.714;2022-10-17T09:42:54;20.00;99.90
24454;DHT22;12627;50.860;5.714;2022-10-17T09:45:22;20.10;99.90
24454;DHT22;12627;50.860;5.714;2022-10-17T09:47:59;20.00;99.90
24454;DHT22;12627;50.860;5.714;2022-10-17T09:50:33;19.90;99.90
24454;DHT22;12627;50.860;5.714;2022-10-17T09:53:05;20.00;99.90
24454;DHT22;12627;50.860;5.714;2022-10-17T09:55:39;20.00;99.90
24454;DHT22;12627;50.860;5.714;2022-10-17T09:58:08;19.90;99.90
24454;DHT22;12627;50.860;5.714;2022-10-17T10:00:38;19.80;99.90
24454;DHT22;12627;50.860;5.714;2022-10-17T10:03:18;19.80;99.90
24454;DHT22;12627;50.860;5.714;2022-10-17T10:05:59;19.50;99.90
24454;DHT22;12627;50.860;5.714;2022-10-17T10:08:29;18.90;99.90
24454;DHT22;12627;50.860;5.714;2022-10-17T10:10:59;18.40;99.90
24454;DHT22;12627;50.860;5.714;2022-10-17T10:13:28;18.30;99.90
24454;DHT22;12627;50.860;5.714;2022-10-17T10:16:13;18.20;99.90
24454;DHT22;12627;50.860;5.714;2022-10-17T10:18:43;18.30;99.90
24454;DHT22;12627;50.860;5.714;2022-10-17T10:21:13;18.30;99.90
24454;DHT22;12627;50.860;5.714;2022-10-17T10:23:42;18.50;99.90
24454;DHT22;12627;50.860;5.714;2022-10-17T10:26:21;18.70;99.90
24454;DHT22;12627;50.860;5.714;2022-10-17T10:28:55;18.80;99.90
24454;DHT22;12627;50.860;5.714;2022-10-17T10:31:29;18.90;99.90
24454;DHT22;12627;50.860;5.714;2022-10-17T10:33:59;18.90;99.90
24454;DHT22;12627;50.860;5.714;2022-10-17T10:36:45;18.90;99.90
24454;DHT22;12627;50.860;5.714;2022-10-17T10:42:23;19.00;99.90
24454;DHT22;12627;50.860;5.714;2022-10-17T10:44:52;19.20;99.90
24454;DHT22;12627;50.860;5.714;2022-10-17T10:47:23;19.20;99.90
24454;DHT22;12627;50.860;5.714;2022-10-17T10:50:07;19.30;99.90
24454;DHT22;12627;50.860;5.714;2022-10-17T10:52:45;19.30;99.90
24454;DHT22;12627;50.860;5.714;2022-10-17T10:55:21;19.30;99.90
24454;DHT22;12627;50.860;5.714;2022-10-17T10:57:52;19.20;99.90
24454;DHT22;12627;50.860;5.714;2022-10-17T11:00:24;19.20;99.90
24454;DHT22;12627;50.860;5.714;2022-10-17T11:02:59;19.20;99.90
24454;DHT22;12627;50.860;5.714;2022-10-17T11:05:37;19.30;99.90
24454;DHT22;12627;50.860;5.714;2022-10-17T11:08:12;19.30;99.90
24454;DHT22;12627;50.860;5.714;2022-10-17T11:10:54;19.30;99.90
24454;DHT22;12627;50.860;5.714;2022-10-17T11:13:35;19.30;99.90
24454;DHT22;12627;50.860;5.714;2022-10-17T11:16:20;19.30;99.90
24454;DHT22;12627;50.860;5.714;2022-10-17T11:18:54;19.20;99.90
24454;DHT22;12627;50.860;5.714;2022-10-17T11:21:33;19.20;99.90
24454;DHT22;12627;50.860;5.714;2022-10-17T11:24:07;19.40;99.90
24454;DHT22;12627;50.860;5.714;2022-10-17T11:26:42;19.40;99.90
24454;DHT22;12627;50.860;5.714;2022-10-17T11:29:11;19.50;99.90
24454;DHT22;12627;50.860;5.714;2022-10-17T11:31:42;19.50;99.90
24454;DHT22;12627;50.860;5.714;2022-10-17T11:34:15;19.50;99.90
24454;DHT22;12627;50.860;5.714;2022-10-17T11:36:49;19.50;99.90
24454;DHT22;12627;50.860;5.714;2022-10-17T11:39:20;19.40;99.90
24454;DHT22;12627;50.860;5.714;2022-10-17T11:41:52;19.40;99.90
24454;DHT22;12627;50.860;5.714;2022-10-17T11:44:22;19.50;99.90
24454;DHT22;12627;50.860;5.714;2022-10-17T11:46:53;19.60;99.90
24454;DHT22;12627;50.860;5.714;2022-10-17T11:49:26;19.70;99.90
24454;DHT22;12627;50.860;5.714;2022-10-17T11:52:01;19.80;99.90
24454;DHT22;12627;50.860;5.714;2022-10-17T11:54:36;19.90;99.90
24454;DHT22;12627;50.860;5.714;2022-10-17T11:57:18;19.90;99.90
24454;DHT22;12627;50.860;5.714;2022-10-17T11:59:57;20.00;99.90
24454;DHT22;12627;50.860;5.714;2022-10-17T12:02:37;20.00;99.90
24454;DHT22;12627;50.860;5.714;2022-10-17T12:05:16;20.00;99.90
24454;DHT22;12627;50.860;5.714;2022-10-17T12:07:51;19.90;99.90
24454;DHT22;12627;50.860;5.714;2022-10-17T12:10:30;19.90;99.90
24454;DHT22;12627;50.860;5.714;2022-10-17T12:16:37;19.90;99.90
24454;DHT22;12627;50.860;5.714;2022-10-17T12:19:34;19.90;99.90
24454;DHT22;12627;50.860;5.714;2022-10-17T12:22:17;19.90;99.90
24454;DHT22;12627;50.860;5.714;2022-10-17T12:24:55;19.90;99.90
24454;DHT22;12627;50.860;5.714;2022-10-17T12:27:36;20.00;99.90
24454;DHT22;12627;50.860;5.714;2022-10-17T12:30:13;20.00;99.90
24454;DHT22;12627;50.860;5.714;2022-10-17T12:32:54;19.90;99.90
24454;DHT22;12627;50.860;5.714;2022-10-17T12:35:23;19.90;99.90
24454;DHT22;12627;50.860;5.714;2022-10-17T12:38:02;19.90;99.90
24454;DHT22;12627;50.860;5.714;2022-10-17T12:41:00;20.00;99.90
24454;DHT22;12627;50.860;5.714;2022-10-17T12:43:35;20.00;99.90
24454;DHT22;12627;50.860;5.714;2022-10-17T12:46:03;20.00;99.90
24454;DHT22;12627;50.860;5.714;2022-10-17T12:54:59;20.10;99.90
24454;DHT22;12627;50.860;5.714;2022-10-17T12:57:33;20.10;99.90
24454;DHT22;12627;50.860;5.714;2022-10-17T13:00:11;20.10;99.90
24454;DHT22;12627;50.860;5.714;2022-10-17T13:02:40;20.00;99.90
24454;DHT22;12627;50.860;5.714;2022-10-17T13:05:23;20.10;99.90
24454;DHT22;12627;50.860;5.714;2022-10-17T13:07:52;20.10;99.90
24454;DHT22;12627;50.860;5.714;2022-10-17T13:10:23;20.10;99.90
24454;DHT22;12627;50.860;5.714;2022-10-17T13:12:58;20.20;99.90
24454;DHT22;12627;50.860;5.714;2022-10-17T13:15:27;20.20;99.90
24454;DHT22;12627;50.860;5.714;2022-10-17T13:17:56;20.20;99.90
24454;DHT22;12627;50.860;5.714;2022-10-17T13:20:26;20.20;99.90
24454;DHT22;12627;50.860;5.714;2022-10-17T13:22:55;20.10;99.90
24454;DHT22;12627;50.860;5.714;2022-10-17T13:25:24;20.10;99.90
24454;DHT22;12627;50.860;5.714;2022-10-17T13:28:06;20.10;99.90
24454;DHT22;12627;50.860;5.714;2022-10-17T13:30:36;20.10;99.90
24454;DHT22;12627;50.860;5.714;2022-10-17T13:33:17;20.10;99.90
24454;DHT22;12627;50.860;5.714;2022-10-17T13:35:50;20.10;99.90
